createdAt,value
2022-10-18T00:00:07.402Z,99.90
2022-10-18T00:03:49.168Z,99.90
2022-10-18T00:07:31.301Z,99.90
2022-10-18T00:11:13.353Z,99.90
2022-10-18T00:14:55.145Z,99.90
2022-10-18T00:18:37.115Z,99.90
2022-10-18T00:22:18.859Z,99.90
2022-10-18T00:26:05.531Z,99.90
2022-10-18T00:29:53.496Z,99.90
2022-10-18T00:33:35.267Z,99.90
2022-10-18T00:37:17.343Z,99.90
2022-10-18T00:40:59.353Z,99.90
2022-10-18T00:44:41.031Z,99.90
2022-10-18T00:48:23.490Z,99.90
2022-10-18T00:52:11.056Z,99.90
2022-10-18T00:55:52.937Z,99.90
2022-10-18T00:59:35.331Z,99.90
2022-10-18T01:03:18.298Z,99.90
2022-10-18T01:07:23.566Z,99.90
2022-10-18T01:11:10.035Z,99.90
2022-10-18T01:19:32.040Z,99.90
2022-10-18T01:23:37.632Z,99.90
2022-10-18T01:27:38.442Z,99.90
2022-10-18T01:31:24.583Z,99.90
2022-10-18T01:35:16.856Z,99.90
2022-10-18T01:39:01.973Z,99.90
2022-10-18T01:42:46.322Z,99.90
2022-10-18T01:46:29.924Z,99.90
2022-10-18T01:50:11.852Z,99.90
2022-10-18T01:53:54.468Z,99.90
2022-10-18T01:57:52.475Z,99.90
2022-10-18T02:01:34.169Z,99.90
2022-10-18T02:05:18.617Z,99.90
2022-10-18T02:09:09.709Z,99.90
2022-10-18T02:12:52.473Z,99.90
2022-10-18T02:16:55.255Z,99.90
2022-10-18T02:24:56.115Z,99.90
2022-10-18T02:28:38.984Z,99.90
2022-10-18T02:32:26.464Z,99.90
2022-10-18T02:36:18.288Z,99.90
2022-10-18T02:40:00.087Z,99.90
2022-10-18T02:43:42.001Z,99.90
2022-10-18T02:47:23.772Z,99.90
2022-10-18T02:51:05.786Z,99.90
2022-10-18T02:54:47.634Z,99.90
2022-10-18T02:58:29.573Z,99.90
2022-10-18T03:02:11.398Z,99.90
2022-10-18T03:05:53.340Z,99.90
2022-10-18T03:09:35.070Z,99.90
2022-10-18T03:13:16.997Z,99.90
2022-10-18T03:16:58.794Z,99.90
2022-10-18T03:20:40.749Z,99.90
2022-10-18T03:24:22.517Z,99.90
2022-10-18T03:28:04.377Z,99.90
2022-10-18T03:31:46.180Z,99.90
2022-10-18T03:35:27.934Z,99.90
2022-10-18T03:39:12.782Z,99.90
2022-10-18T03:42:54.541Z,99.90
2022-10-18T03:46:36.302Z,99.90
2022-10-18T03:50:18.632Z,99.90
2022-10-18T03:54:00.506Z,99.90
2022-10-18T03:57:42.234Z,99.90
2022-10-18T04:01:24.792Z,99.90
2022-10-18T04:05:07.579Z,99.90
2022-10-18T04:08:49.338Z,99.90
2022-10-18T04:12:31.253Z,99.90
2022-10-18T04:16:13.370Z,99.90
2022-10-18T04:19:55.465Z,99.90
2022-10-18T04:23:38.833Z,99.90
2022-10-18T04:27:20.810Z,99.90
2022-10-18T04:31:02.603Z,99.90
2022-10-18T04:34:44.453Z,99.90
2022-10-18T04:38:26.204Z,99.90
2022-10-18T04:42:08.012Z,99.90
2022-10-18T04:45:51.189Z,99.90
2022-10-18T04:49:33.161Z,99.90
2022-10-18T04:53:15.657Z,99.90
2022-10-18T04:56:57.381Z,99.90
2022-10-18T05:00:40.141Z,99.90
2022-10-18T05:04:22.109Z,99.90
2022-10-18T05:08:04.040Z,99.90
2022-10-18T05:11:45.830Z,99.90
2022-10-18T05:15:27.662Z,99.90
2022-10-18T05:19:10.345Z,99.90
2022-10-18T05:22:52.109Z,99.90
2022-10-18T05:26:33.824Z,99.90
2022-10-18T05:30:15.763Z,99.90
2022-10-18T05:33:57.521Z,99.90
2022-10-18T05:37:39.305Z,99.90
2022-10-18T05:41:21.392Z,99.90
2022-10-18T05:45:03.433Z,99.90
2022-10-18T05:48:51.250Z,99.90
2022-10-18T05:52:33.235Z,99.90
2022-10-18T05:56:15.280Z,99.90
2022-10-18T05:59:57.085Z,99.90
2022-10-18T06:03:41.946Z,99.90
2022-10-18T06:07:23.702Z,99.90
2022-10-18T06:11:10.041Z,99.90
2022-10-18T06:14:51.842Z,99.90
2022-10-18T06:18:33.563Z,99.90
2022-10-18T06:22:15.447Z,99.90
2022-10-18T06:26:05.862Z,99.90
2022-10-18T06:29:47.697Z,99.90
2022-10-18T06:33:31.167Z,99.90
2022-10-18T06:37:12.886Z,99.90
2022-10-18T06:40:55.758Z,99.90
2022-10-18T06:44:37.501Z,99.90
2022-10-18T06:52:07.455Z,99.90
2022-10-18T06:55:49.260Z,99.90
2022-10-18T06:59:31.533Z,99.90
2022-10-18T07:03:13.514Z,99.90
2022-10-18T07:06:55.377Z,99.90
2022-10-18T07:10:45.758Z,99.90
2022-10-18T07:14:29.453Z,99.90
2022-10-18T07:18:11.242Z,99.90
2022-10-18T07:21:53.065Z,99.90
2022-10-18T07:25:35.450Z,99.90
2022-10-18T07:29:17.266Z,99.90
2022-10-18T07:32:59.066Z,99.90
2022-10-18T07:36:41.147Z,99.90
2022-10-18T07:40:22.957Z,99.90
2022-10-18T07:44:10.984Z,99.90
2022-10-18T07:47:58.060Z,99.90
2022-10-18T07:51:42.810Z,99.90
2022-10-18T07:55:42.537Z,99.90
2022-10-18T07:59:24.383Z,99.90
2022-10-18T08:03:13.334Z,99.90
2022-10-18T08:06:55.101Z,99.90
2022-10-18T08:10:37.482Z,99.90
2022-10-18T08:14:19.286Z,99.90
2022-10-18T08:18:01.010Z,99.90
2022-10-18T08:21:42.983Z,99.90
2022-10-18T08:25:25.093Z,99.90
2022-10-18T08:29:21.372Z,99.90
2022-10-18T08:33:04.954Z,99.90
2022-10-18T08:36:46.832Z,99.90
2022-10-18T08:40:29.002Z,99.90
2022-10-18T08:44:30.469Z,99.90
2022-10-18T08:48:25.749Z,99.90
2022-10-18T08:52:34.735Z,99.90
2022-10-18T08:56:24.122Z,99.90
2022-10-18T09:00:16.969Z,99.90
2022-10-18T09:04:13.974Z,99.90
2022-10-18T09:08:30.425Z,99.90
2022-10-18T09:12:50.283Z,99.90
2022-10-18T09:17:15.922Z,99.90
2022-10-18T09:21:20.224Z,99.90
2022-10-18T09:25:19.846Z,99.90
2022-10-18T09:29:39.978Z,99.90
2022-10-18T09:33:46.845Z,99.90
2022-10-18T09:37:32.613Z,99.90
2022-10-18T09:41:29.779Z,99.90
2022-10-18T09:45:32.072Z,99.90
2022-10-18T09:49:28.402Z,99.90
2022-10-18T09:53:10.202Z,99.90
2022-10-18T09:57:03.158Z,99.90
2022-10-18T10:00:53.252Z,99.90
2022-10-18T10:04:35.130Z,99.90
2022-10-18T10:08:17.916Z,99.90
2022-10-18T10:11:59.768Z,99.90
2022-10-18T10:15:46.817Z,99.90
2022-10-18T10:19:32.628Z,97.50
2022-10-18T10:23:28.524Z,95.90
2022-10-18T10:27:33.435Z,90.20
2022-10-18T10:31:32.072Z,90.00
2022-10-18T10:35:53.108Z,88.60
2022-10-18T10:39:35.737Z,81.30
2022-10-18T10:46:59.265Z,94.70
2022-10-18T10:50:55.291Z,92.90
2022-10-18T10:54:39.097Z,74.80
2022-10-18T10:58:21.851Z,83.00
2022-10-18T11:02:17.691Z,79.20
2022-10-18T11:06:01.881Z,64.10
2022-10-18T11:10:05.466Z,73.50
2022-10-18T11:14:01.607Z,63.20
2022-10-18T11:18:19.777Z,63.20
2022-10-18T11:22:04.181Z,57.50
2022-10-18T11:26:04.631Z,62.10
2022-10-18T11:30:23.511Z,63.20
2022-10-18T11:34:09.820Z,55.80
2022-10-18T11:38:23.103Z,59.90
2022-10-18T11:42:29.073Z,55.40
2022-10-18T11:46:40.120Z,56.00
2022-10-18T11:50:50.607Z,51.80
2022-10-18T11:54:55.834Z,49.60
2022-10-18T11:58:59.373Z,47.90
2022-10-18T12:06:43.449Z,53.10
2022-10-18T12:10:37.870Z,51.00
2022-10-18T12:14:36.954Z,52.00
2022-10-18T12:18:23.393Z,46.50
2022-10-18T12:22:28.347Z,48.00
2022-10-18T12:26:11.486Z,42.20
2022-10-18T12:30:06.326Z,47.40
2022-10-18T12:34:08.567Z,41.80
2022-10-18T12:38:04.278Z,44.00
2022-10-18T12:46:24.347Z,43.90
2022-10-18T12:50:24.089Z,45.70
2022-10-18T12:54:11.633Z,42.40
2022-10-18T12:57:53.335Z,41.30
2022-10-18T13:01:58.250Z,44.50
2022-10-18T13:05:53.976Z,39.20
2022-10-18T13:09:42.863Z,39.60
2022-10-18T13:13:54.085Z,40.90
2022-10-18T13:17:35.988Z,40.10
2022-10-18T13:21:55.438Z,43.50
2022-10-18T13:25:58.836Z,39.20
2022-10-18T13:29:50.597Z,37.40
2022-10-18T13:33:41.106Z,38.50
2022-10-18T13:37:26.473Z,40.80
2022-10-18T13:41:13.074Z,42.10
2022-10-18T13:44:54.911Z,41.70
2022-10-18T13:48:36.981Z,42.30
2022-10-18T13:53:03.086Z,42.50
2022-10-18T13:57:10.722Z,39.10
2022-10-18T14:01:04.508Z,38.20
2022-10-18T14:05:24.495Z,39.50
2022-10-18T14:09:25.366Z,38.20
2022-10-18T14:13:22.955Z,39.50
2022-10-18T14:17:34.022Z,40.50
2022-10-18T14:21:30.223Z,39.70
2022-10-18T14:25:26.003Z,38.20
2022-10-18T14:29:19.467Z,37.90
2022-10-18T14:33:01.619Z,36.40
2022-10-18T14:36:47.732Z,37.40
2022-10-18T14:40:34.691Z,38.30
2022-10-18T14:44:19.546Z,40.30
2022-10-18T14:48:15.612Z,41.30
2022-10-18T14:51:59.970Z,41.40
2022-10-18T14:55:43.101Z,42.10
2022-10-18T14:59:27.750Z,42.00
2022-10-18T15:03:15.207Z,41.60
2022-10-18T15:06:57.906Z,41.40
2022-10-18T15:10:40.814Z,42.20
2022-10-18T15:14:24.139Z,43.20
2022-10-18T15:18:28.986Z,43.40
2022-10-18T15:22:30.651Z,43.80
2022-10-18T15:26:15.580Z,43.90
2022-10-18T15:29:57.575Z,44.50
2022-10-18T15:33:39.452Z,44.30
2022-10-18T15:37:35.901Z,44.90
2022-10-18T15:41:42.661Z,46.30
2022-10-18T15:45:24.414Z,47.40
2022-10-18T15:49:44.374Z,46.90
2022-10-18T15:53:46.510Z,49.10
2022-10-18T15:57:31.395Z,48.80
2022-10-18T16:01:17.835Z,49.00
2022-10-18T16:05:01.440Z,49.70
2022-10-18T16:08:49.122Z,49.90
2022-10-18T16:12:30.877Z,50.60
2022-10-18T16:16:22.113Z,50.90
2022-10-18T16:20:05.180Z,52.60
2022-10-18T16:23:48.910Z,52.10
2022-10-18T16:27:33.304Z,52.60
2022-10-18T16:31:24.039Z,52.90
2022-10-18T16:35:10.247Z,53.80
2022-10-18T16:38:54.274Z,53.80
2022-10-18T16:42:37.410Z,54.20
2022-10-18T16:46:30.056Z,54.60
2022-10-18T16:50:20.481Z,55.40
2022-10-18T16:54:02.546Z,56.00
2022-10-18T16:57:44.626Z,55.60
2022-10-18T17:01:28.993Z,56.10
2022-10-18T17:05:11.006Z,56.70
2022-10-18T17:08:54.317Z,57.00
2022-10-18T17:12:36.238Z,57.50
2022-10-18T17:20:26.368Z,58.30
2022-10-18T17:24:08.146Z,60.90
2022-10-18T17:27:53.488Z,59.00
2022-10-18T17:31:36.447Z,59.20
2022-10-18T17:35:19.754Z,59.50
2022-10-18T17:39:01.717Z,60.20
2022-10-18T17:42:43.590Z,60.10
2022-10-18T17:46:25.494Z,60.40
2022-10-18T17:50:07.535Z,60.80
2022-10-18T17:53:49.319Z,61.50
2022-10-18T17:57:31.401Z,61.60
2022-10-18T18:01:19.293Z,62.70
2022-10-18T18:05:01.544Z,62.80
2022-10-18T18:08:44.339Z,62.50
2022-10-18T18:12:27.205Z,62.80
2022-10-18T18:16:21.023Z,63.00
2022-10-18T18:20:03.132Z,64.90
2022-10-18T18:23:45.511Z,63.70
2022-10-18T18:27:27.802Z,64.00
2022-10-18T18:31:16.239Z,64.10
2022-10-18T18:34:58.023Z,64.70
2022-10-18T18:38:42.790Z,64.00
2022-10-18T18:42:24.778Z,64.30
2022-10-18T18:46:07.503Z,64.30
2022-10-18T18:49:50.171Z,64.50
2022-10-18T18:53:35.355Z,64.60
2022-10-18T18:57:17.440Z,64.70
2022-10-18T19:00:59.337Z,64.50
2022-10-18T19:04:41.441Z,64.60
2022-10-18T19:08:23.167Z,64.80
2022-10-18T19:12:05.670Z,64.70
2022-10-18T19:15:47.834Z,65.30
2022-10-18T19:19:30.642Z,65.50
2022-10-18T19:23:12.502Z,66.10
2022-10-18T19:27:03.345Z,66.40
2022-10-18T19:30:50.013Z,67.80
2022-10-18T19:34:34.603Z,66.70
2022-10-18T19:38:16.628Z,67.90
2022-10-18T19:42:00.434Z,67.80
2022-10-18T19:45:42.383Z,68.20
2022-10-18T19:49:26.748Z,68.20
2022-10-18T19:53:08.596Z,68.80
2022-10-18T19:56:50.665Z,69.30
2022-10-18T20:00:34.066Z,69.30
2022-10-18T20:04:16.415Z,70.90
2022-10-18T20:07:59.254Z,71.00
2022-10-18T20:11:41.346Z,71.30
2022-10-18T20:15:23.458Z,72.10
2022-10-18T20:19:13.084Z,72.80
2022-10-18T20:22:55.037Z,74.40
2022-10-18T20:26:37.182Z,73.70
2022-10-18T20:34:25.318Z,78.10
2022-10-18T20:38:10.061Z,78.20
2022-10-18T20:41:51.884Z,75.50
2022-10-18T20:45:33.722Z,76.10
2022-10-18T20:49:17.519Z,77.30
2022-10-18T20:53:00.546Z,80.00
2022-10-18T20:56:42.623Z,80.70
2022-10-18T21:00:25.876Z,80.70
2022-10-18T21:04:09.927Z,81.90
2022-10-18T21:07:51.701Z,84.00
2022-10-18T21:11:38.593Z,83.80
2022-10-18T21:15:20.361Z,87.20
2022-10-18T21:19:07.117Z,84.70
2022-10-18T21:22:49.014Z,87.90
2022-10-18T21:26:30.846Z,84.80
2022-10-18T21:34:04.724Z,85.60
2022-10-18T21:41:42.846Z,86.10
2022-10-18T21:45:24.601Z,85.60
2022-10-18T21:49:07.848Z,85.50
2022-10-18T21:52:49.610Z,86.40
2022-10-18T21:56:33.705Z,85.80
2022-10-18T22:00:16.071Z,86.80
2022-10-18T22:03:58.866Z,85.80
2022-10-18T22:07:40.681Z,86.00
2022-10-18T22:11:33.344Z,85.60
2022-10-18T22:15:15.283Z,88.50
2022-10-18T22:18:59.051Z,85.50
2022-10-18T22:22:41.242Z,85.80
2022-10-18T22:26:28.301Z,85.60
2022-10-18T22:30:10.710Z,86.30
2022-10-18T22:33:59.773Z,85.70
2022-10-18T22:37:41.636Z,86.90
2022-10-18T22:41:25.713Z,86.40
2022-10-18T22:45:07.974Z,86.00
2022-10-18T22:48:50.064Z,86.00
2022-10-18T22:52:32.232Z,87.00
2022-10-18T22:56:17.113Z,86.10
2022-10-18T22:59:58.858Z,87.00
2022-10-18T23:03:40.828Z,86.50
2022-10-18T23:07:22.532Z,87.00
2022-10-18T23:11:04.314Z,87.80
2022-10-18T23:14:46.318Z,88.30
2022-10-18T23:18:28.148Z,88.80
2022-10-18T23:22:09.928Z,88.70
2022-10-18T23:25:54.256Z,88.70
2022-10-18T23:29:36.093Z,90.20
2022-10-18T23:33:18.066Z,89.10
2022-10-18T23:37:01.404Z,89.40
2022-10-18T23:40:43.305Z,90.20
2022-10-18T23:44:25.078Z,89.70
2022-10-18T23:48:07.122Z,89.60
2022-10-18T23:51:49.136Z,90.00
2022-10-18T23:55:32.389Z,89.90
2022-10-18T23:59:14.475Z,90.20
